Galena Knolls, Illinois
Current Conditions -  °F | °C
As of 2:55 PM on Tuesday 21 Oct 2014 (Local Time) from KC75 Reporting Station
Clear Clear  
Wind Chill: 58°   Ceiling: Unl
Heat Index: 58°   Visibility: 10mi
Dew Point: 38°   Wind: 6mph
Humidity: 47%   Direction: 40°NE
Pressure: 30.15"   Gusts: NA
Location:  40.915°N, 89.5303°W
Report Text: KC75 211955Z AUTO 04005KT 10SM CLR 15/03 A3015 RMK AO2 T01460033
Loading
Personal Weather Stations






























Interactive Weather Map
Tropical Storm Tracking
New forecast layout! Learn more

10-Day Weather Forecast

Advertisements
Track Severe Weather on mobile